Time;durP1;ratioP1;P1;durP2;ratioP2;P2;SDS_P1;SDS_P2;PMS_P1;PMS_P2;Temp;Humidity;BMP_temperature;BMP_pressure;BME280_temperature;BME280_humidity;BME280_pressure;Samples;Min_cycle;Max_cycle;Signal;HPM_P1;HPM_P2
2022/05/28 00:04:32;;;;;;;2.95;1.00;;;19.50;61.80;;;;;;10412790;28;20112;-57
2022/05/28 00:09:32;;;;;;;2.70;1.25;;;19.50;61.80;;;;;;10413098;28;20570;-57
2022/05/28 00:14:33;;;;;;;4.10;1.02;;;19.50;61.80;;;;;;10411521;28;20112;-57
2022/05/28 00:19:34;;;;;;;1.77;0.90;;;19.50;61.80;;;;;;10412314;28;20069;-56
2022/05/28 00:24:35;;;;;;;2.70;1.33;;;19.50;61.90;;;;;;10413804;28;20107;-56
2022/05/28 00:29:35;;;;;;;2.50;1.02;;;19.40;61.70;;;;;;10412258;28;20040;-56
2022/05/28 00:34:36;;;;;;;2.67;1.05;;;19.40;61.80;;;;;;10411248;28;20108;-57
2022/05/28 00:39:37;;;;;;;5.32;1.20;;;19.40;61.80;;;;;;10425631;28;20033;-57
2022/05/28 00:44:38;;;;;;;1.95;1.17;;;19.40;61.80;;;;;;10409040;28;20068;-56
2022/05/28 00:49:39;;;;;;;2.95;0.90;;;19.40;61.80;;;;;;10410010;28;20121;-56
2022/05/28 00:54:47;;;;;;;2.28;1.00;;;19.40;61.80;;;;;;10415738;28;20038;-57
2022/05/28 00:59:47;;;;;;;1.50;0.80;;;19.40;61.80;;;;;;10424950;28;20453;-56
2022/05/28 01:05:20;;;;;;;2.97;0.90;;;19.40;61.80;;;;;;10408587;28;20057;-56
2022/05/28 01:10:45;;;;;;;1.95;1.17;;;19.40;61.80;;;;;;10399861;28;20033;-57
2022/05/28 01:16:15;;;;;;;2.58;1.13;;;19.40;61.80;;;;;;10420515;28;20390;-56
2022/05/28 01:21:47;;;;;;;1.75;0.80;;;19.40;61.70;;;;;;10420929;28;20091;-56
2022/05/28 01:26:57;;;;;;;2.72;1.00;;;19.30;61.70;;;;;;10390759;28;20052;-56
2022/05/28 01:31:59;;;;;;;2.05;0.95;;;19.30;61.80;;;;;;10408984;28;20084;-56
2022/05/28 01:37:01;;;;;;;1.52;0.80;;;19.30;61.80;;;;;;10359737;28;1417222;-56
2022/05/28 01:42:06;;;;;;;3.55;1.42;;;19.30;61.80;;;;;;10410143;28;20040;-56
2022/05/28 01:47:06;;;;;;;1.63;1.08;;;19.30;61.90;;;;;;10425846;28;20029;-57
2022/05/28 01:52:09;;;;;;;3.38;1.05;;;19.30;61.80;;;;;;10409877;28;20482;-57
2022/05/28 01:57:12;;;;;;;1.75;1.00;;;19.30;61.80;;;;;;10409022;28;20017;-56
2022/05/28 02:02:15;;;;;;;1.88;0.90;;;19.30;61.80;;;;;;10410074;28;20440;-56
2022/05/28 02:07:17;;;;;;;3.92;1.50;;;19.30;61.80;;;;;;10425753;28;20033;-56
2022/05/28 02:12:47;;;;;;;2.33;1.60;;;19.30;61.90;;;;;;10409928;28;20086;-56
2022/05/28 02:17:52;;;;;;;2.97;1.47;;;19.30;61.90;;;;;;10421168;28;20041;-56
2022/05/28 02:23:07;;;;;;;2.20;0.82;;;19.30;61.90;;;;;;10410734;28;20037;-56
2022/05/28 02:28:08;;;;;;;2.35;1.08;;;19.30;61.90;;;;;;10412093;28;20049;-56
2022/05/28 02:33:09;;;;;;;1.95;0.90;;;19.30;62.00;;;;;;10416710;28;20517;-56
2022/05/28 02:38:12;;;;;;;1.65;1.10;;;19.30;62.00;;;;;;10415801;28;20039;-56
2022/05/28 02:43:13;;;;;;;1.50;1.00;;;19.30;62.50;;;;;;10416535;28;20033;-55
2022/05/28 02:48:14;;;;;;;3.08;1.20;;;19.30;62.00;;;;;;10416123;28;20080;-55
2022/05/28 02:53:14;;;;;;;1.98;0.88;;;19.20;62.00;;;;;;10414895;28;20132;-57
2022/05/28 02:58:15;;;;;;;1.67;0.68;;;19.20;62.00;;;;;;10416534;28;20505;-56
2022/05/28 03:03:19;;;;;;;1.73;0.75;;;19.20;62.00;;;;;;10415533;28;20547;-56
2022/05/28 03:08:20;;;;;;;3.63;1.45;;;19.20;62.00;;;;;;10415534;28;20481;-57
2022/05/28 03:13:20;;;;;;;2.03;0.90;;;19.20;62.00;;;;;;10415339;28;20025;-56
2022/05/28 03:18:21;;;;;;;2.33;1.23;;;19.20;62.00;;;;;;10411248;28;20039;-56
2022/05/28 03:23:22;;;;;;;1.50;0.80;;;19.20;62.00;;;;;;10411113;28;20065;-57
2022/05/28 03:28:23;;;;;;;1.63;0.77;;;19.20;62.10;;;;;;10430257;28;20025;-56
2022/05/28 03:33:24;;;;;;;2.08;1.00;;;19.20;62.10;;;;;;10420880;28;20046;-57
2022/05/28 03:38:25;;;;;;;1.30;0.63;;;19.20;62.10;;;;;;10414722;28;20152;-57
2022/05/28 03:43:26;;;;;;;2.25;1.00;;;19.10;62.10;;;;;;10414328;28;20037;-56
2022/05/28 03:48:27;;;;;;;3.08;1.13;;;19.20;62.10;;;;;;10413233;28;20045;-57
2022/05/28 03:53:28;;;;;;;1.75;0.90;;;19.10;62.10;;;;;;10415128;28;20108;-57
2022/05/28 03:58:29;;;;;;;1.30;0.95;;;19.10;62.10;;;;;;10414659;28;20112;-57
2022/05/28 04:03:30;;;;;;;4.03;1.10;;;19.10;62.10;;;;;;10414053;28;20057;-57
2022/05/28 04:08:30;;;;;;;1.67;0.77;;;19.10;62.20;;;;;;10413931;28;20474;-57
2022/05/28 04:13:31;;;;;;;4.50;1.10;;;19.10;62.20;;;;;;10414340;28;20057;-56
2022/05/28 04:18:32;;;;;;;3.05;1.25;;;19.10;62.10;;;;;;10413413;28;20473;-56
2022/05/28 04:23:33;;;;;;;1.20;0.65;;;19.10;62.10;;;;;;10415131;28;20036;-57
2022/05/28 04:28:34;;;;;;;2.13;0.82;;;19.10;62.20;;;;;;10413403;28;20033;-57
2022/05/28 04:33:35;;;;;;;2.25;0.82;;;19.10;62.10;;;;;;10411844;28;20155;-58
2022/05/28 04:38:35;;;;;;;1.92;1.15;;;19.10;62.20;;;;;;10413126;28;20604;-57
2022/05/28 04:43:36;;;;;;;2.50;0.85;;;19.10;62.20;;;;;;10411623;28;20175;-56
2022/05/28 04:48:38;;;;;;;2.38;1.20;;;19.10;62.20;;;;;;10412457;28;20030;-57
2022/05/28 04:53:39;;;;;;;2.00;1.15;;;19.10;62.20;;;;;;10412448;28;20057;-56
2022/05/28 04:58:42;;;;;;;2.15;0.88;;;19.10;62.30;;;;;;10412623;28;20413;-56
2022/05/28 05:03:42;;;;;;;2.22;1.08;;;19.10;62.20;;;;;;10411090;28;20453;-56
2022/05/28 05:08:44;;;;;;;1.48;0.93;;;19.10;62.20;;;;;;10412037;28;20083;-57
2022/05/28 05:13:45;;;;;;;2.17;1.98;;;19.00;62.20;;;;;;10412244;28;20030;-57
2022/05/28 05:18:46;;;;;;;1.85;1.02;;;19.10;62.30;;;;;;10411882;28;20123;-57
2022/05/28 05:23:47;;;;;;;1.83;0.60;;;19.00;62.20;;;;;;10412735;28;20041;-56
2022/05/28 05:28:49;;;;;;;3.13;1.88;;;19.10;62.30;;;;;;10411675;28;20355;-56
2022/05/28 05:33:50;;;;;;;1.80;0.70;;;19.00;62.30;;;;;;10411036;28;20077;-57
2022/05/28 05:38:50;;;;;;;2.40;0.82;;;19.00;62.30;;;;;;10411820;28;20421;-57
2022/05/28 05:43:51;;;;;;;1.42;0.90;;;19.00;62.30;;;;;;10410265;28;20038;-57
2022/05/28 05:48:52;;;;;;;2.53;0.98;;;19.00;62.30;;;;;;10411545;28;20037;-56
2022/05/28 05:53:52;;;;;;;2.20;0.88;;;19.00;62.30;;;;;;10411067;28;20064;-57
2022/05/28 05:58:53;;;;;;;1.67;0.80;;;19.00;62.30;;;;;;10411932;28;20160;-57
2022/05/28 06:03:54;;;;;;;1.95;0.77;;;19.00;62.30;;;;;;10414973;28;20053;-57
2022/05/28 06:08:54;;;;;;;2.78;0.88;;;19.00;62.30;;;;;;10418767;28;20037;-57
2022/05/28 06:13:55;;;;;;;1.20;0.73;;;19.00;62.30;;;;;;10418776;28;20030;-56
2022/05/28 06:18:56;;;;;;;1.45;0.70;;;19.00;62.30;;;;;;10417223;28;20059;-57
2022/05/28 06:23:56;;;;;;;1.75;0.65;;;19.00;62.30;;;;;;10419460;28;20485;-55
2022/05/28 06:28:57;;;;;;;1.90;0.60;;;19.00;62.40;;;;;;10416749;28;20082;-56
2022/05/28 06:33:58;;;;;;;1.73;0.90;;;19.00;62.40;;;;;;10418002;28;20078;-56
2022/05/28 06:38:58;;;;;;;2.15;0.70;;;19.00;62.30;;;;;;10417183;28;20040;-57
2022/05/28 06:44:00;;;;;;;1.52;0.65;;;19.00;62.40;;;;;;10417771;28;20047;-57
2022/05/28 06:49:00;;;;;;;3.83;0.90;;;19.00;62.30;;;;;;10417196;28;20025;-57
2022/05/28 06:54:01;;;;;;;2.08;0.60;;;19.00;62.40;;;;;;10415969;28;20389;-56
2022/05/28 06:59:01;;;;;;;2.28;0.60;;;19.00;62.40;;;;;;10417642;28;20083;-57
2022/05/28 07:04:04;;;;;;;2.15;0.70;;;19.00;62.60;;;;;;10417034;28;20029;-56
2022/05/28 07:09:07;;;;;;;2.80;1.05;;;19.00;62.70;;;;;;10416218;28;20574;-57
2022/05/28 07:14:08;;;;;;;2.58;1.17;;;19.00;63.00;;;;;;10416233;28;20374;-55
2022/05/28 07:19:09;;;;;;;3.28;1.00;;;19.00;62.90;;;;;;10413577;28;20112;-56
2022/05/28 07:24:09;;;;;;;1.75;1.10;;;19.00;62.90;;;;;;10417359;28;20064;-57
2022/05/28 07:29:10;;;;;;;2.53;0.88;;;19.00;62.80;;;;;;10415750;28;20566;-56
2022/05/28 07:34:11;;;;;;;1.17;0.52;;;19.10;63.00;;;;;;10415670;28;20088;-57
2022/05/28 07:39:12;;;;;;;1.55;0.65;;;19.10;63.00;;;;;;10387161;28;20124;-57
2022/05/28 07:44:13;;;;;;;3.80;1.05;;;19.10;63.00;;;;;;10414120;28;20156;-57
2022/05/28 07:49:13;;;;;;;1.30;0.65;;;19.10;63.00;;;;;;10413482;28;20108;-57
2022/05/28 07:54:16;;;;;;;1.73;0.80;;;19.00;62.90;;;;;;10414046;28;20070;-57
2022/05/28 07:59:16;;;;;;;4.45;0.77;;;19.10;63.00;;;;;;10414701;28;20025;-57
2022/05/28 08:04:17;;;;;;;2.38;0.70;;;19.10;63.10;;;;;;10414210;28;20120;-57
2022/05/28 08:09:18;;;;;;;1.73;0.70;;;19.10;63.10;;;;;;10414497;28;20026;-57
2022/05/28 08:14:19;;;;;;;3.03;0.80;;;19.10;63.10;;;;;;10413324;28;20116;-56
2022/05/28 08:19:19;;;;;;;2.63;0.68;;;19.10;63.00;;;;;;10410144;28;20461;-57
2022/05/28 08:24:20;;;;;;;1.90;0.80;;;19.10;62.90;;;;;;10414901;28;20025;-57
2022/05/28 08:29:22;;;;;;;2.72;0.80;;;19.10;62.90;;;;;;10413223;28;20030;-57
2022/05/28 08:34:23;;;;;;;2.25;0.90;;;19.10;63.00;;;;;;10417430;28;20174;-56
2022/05/28 08:39:23;;;;;;;2.30;0.80;;;19.10;63.00;;;;;;10413348;28;20688;-57
2022/05/28 08:44:30;;;;;;;1.40;0.60;;;19.10;62.90;;;;;;10412837;28;20178;-56
2022/05/28 08:49:33;;;;;;;3.30;0.77;;;19.10;63.00;;;;;;10411315;28;20034;-56
2022/05/28 08:54:56;;;;;;;4.25;1.25;;;19.10;62.90;;;;;;10411472;28;20029;-56
2022/05/28 09:00:03;;;;;;;1.25;0.63;;;19.10;62.90;;;;;;10411506;28;20025;-57
2022/05/28 09:05:15;;;;;;;2.60;0.80;;;19.20;63.00;;;;;;10410988;28;20040;-56
2022/05/28 09:10:15;;;;;;;1.33;0.80;;;19.10;63.00;;;;;;10427074;28;20041;-56
2022/05/28 09:15:16;;;;;;;1.80;0.88;;;19.10;63.00;;;;;;10427658;28;20113;-57
2022/05/28 09:20:38;;;;;;;1.42;0.52;;;19.20;63.10;;;;;;10409447;28;20048;-57
2022/05/28 09:25:49;;;;;;;2.03;0.90;;;19.20;63.00;;;;;;10414713;28;20120;-56
2022/05/28 09:31:05;;;;;;;2.83;0.70;;;19.10;63.00;;;;;;10395070;28;20072;-57
2022/05/28 09:37:01;;;;;;;2.83;0.95;;;19.10;63.10;;;;;;10412066;28;20132;-56
2022/05/28 09:42:40;;;;;;;1.52;0.85;;;19.20;63.20;;;;;;10414061;28;20501;-57
2022/05/28 09:47:51;;;;;;;4.00;0.77;;;19.10;63.10;;;;;;10419833;28;20033;-57
2022/05/28 09:58:34;;;;;;;3.08;1.85;;;19.20;63.20;;;;;;10420223;28;20069;-56
2022/05/28 10:09:19;;;;;;;2.80;1.00;;;19.20;63.20;;;;;;10419218;28;20046;-56
2022/05/28 10:14:22;;;;;;;1.80;0.63;;;19.10;63.20;;;;;;10418877;28;20462;-57
2022/05/28 10:19:43;;;;;;;1.85;0.90;;;19.10;63.30;;;;;;10417169;28;20028;-57
2022/05/28 10:24:49;;;;;;;1.98;0.70;;;19.20;63.30;;;;;;10417670;28;20504;-56
2022/05/28 10:29:50;;;;;;;2.10;0.75;;;19.20;63.30;;;;;;10416852;28;20506;-57
2022/05/28 10:35:16;;;;;;;2.50;0.98;;;19.20;63.30;;;;;;10418126;28;20033;-57
2022/05/28 10:40:27;;;;;;;4.07;0.73;;;19.10;63.20;;;;;;10427107;28;20053;-57
2022/05/28 10:45:42;;;;;;;1.80;0.80;;;19.10;63.20;;;;;;10432752;28;20119;-57
2022/05/28 10:51:21;;;;;;;1.88;0.80;;;19.20;63.70;;;;;;10432202;28;20394;-57
2022/05/28 10:56:51;;;;;;;1.30;0.52;;;19.20;63.10;;;;;;10393057;28;20048;-56
2022/05/28 11:02:28;;;;;;;3.13;1.10;;;19.30;63.00;;;;;;10416844;28;20561;-58
2022/05/28 11:08:04;;;;;;;1.35;0.60;;;19.30;63.00;;;;;;10415828;28;20040;-56
2022/05/28 11:13:13;;;;;;;2.47;1.15;;;19.30;62.90;;;;;;10416420;28;20049;-57
2022/05/28 11:18:54;;;;;;;2.88;0.88;;;19.30;62.80;;;;;;10416330;28;20032;-57
2022/05/28 11:24:31;;;;;;;2.58;0.90;;;19.30;62.50;;;;;;10417162;28;20034;-57
2022/05/28 11:29:38;;;;;;;2.92;1.00;;;19.30;62.40;;;;;;10416164;28;20554;-57
2022/05/28 11:35:39;;;;;;;2.80;1.08;;;19.30;62.50;;;;;;10415404;28;20543;-56
2022/05/28 11:41:17;;;;;;;1.52;0.93;;;19.40;62.50;;;;;;10409176;28;20119;-57
2022/05/28 11:46:59;;;;;;;3.25;0.90;;;19.40;62.50;;;;;;10415790;28;20052;-56
2022/05/28 11:52:18;;;;;;;2.05;0.63;;;19.40;62.40;;;;;;10413282;28;20405;-57
2022/05/28 11:57:32;;;;;;;1.90;0.70;;;19.40;62.30;;;;;;10414881;28;20104;-56
2022/05/28 12:02:49;;;;;;;1.98;0.82;;;19.40;62.50;;;;;;10412368;28;20116;-56
2022/05/28 12:07:59;;;;;;;2.00;1.05;;;19.40;62.30;;;;;;10415163;28;20029;-57
2022/05/28 12:13:01;;;;;;;;;;;19.40;62.40;;;;;;10414971;28;20477;-56
2022/05/28 12:18:14;;;;;;;2.28;0.70;;;19.40;62.50;;;;;;10410951;28;20255;-57
2022/05/28 12:23:39;;;;;;;2.85;0.70;;;19.40;62.40;;;;;;10415049;28;20037;-57
2022/05/28 12:28:50;;;;;;;2.65;1.05;;;19.50;63.00;;;;;;10413345;28;20029;-57
2022/05/28 12:34:01;;;;;;;1.85;0.80;;;19.50;62.40;;;;;;10413385;28;20048;-57
2022/05/28 12:39:22;;;;;;;3.08;0.70;;;19.50;62.50;;;;;;10411924;28;20040;-57
2022/05/28 12:44:24;;;;;;;1.60;0.80;;;19.50;62.40;;;;;;10413137;28;20037;-57
2022/05/28 12:49:51;;;;;;;1.73;0.70;;;19.50;62.90;;;;;;10419918;28;20034;-57
2022/05/28 12:55:17;;;;;;;1.70;0.65;;;19.50;62.40;;;;;;10412607;28;20025;-57
2022/05/28 13:00:21;;;;;;;2.67;0.70;;;19.50;62.40;;;;;;10412513;28;20037;-58
2022/05/28 13:05:42;;;;;;;2.25;0.60;;;19.50;62.50;;;;;;10412448;28;20025;-56
2022/05/28 13:10:54;;;;;;;1.38;0.45;;;19.50;62.60;;;;;;10426633;28;20037;-57
2022/05/28 13:16:51;;;;;;;2.83;0.90;;;19.50;62.80;;;;;;10408669;28;20036;-56
2022/05/28 13:22:23;;;;;;;1.95;0.90;;;19.50;62.70;;;;;;10404913;28;20053;-56
2022/05/28 13:28:10;;;;;;;1.45;0.80;;;19.50;62.70;;;;;;10411642;28;20393;-57
2022/05/28 13:33:19;;;;;;;2.47;1.10;;;19.40;62.90;;;;;;10411738;28;20048;-56
2022/05/28 13:38:28;;;;;;;1.67;0.68;;;19.50;62.80;;;;;;10411485;28;20431;-57
2022/05/28 13:43:38;;;;;;;1.77;0.80;;;19.50;62.70;;;;;;10410422;28;20036;-57
2022/05/28 13:48:43;;;;;;;2.08;0.65;;;19.50;62.70;;;;;;10426845;28;20512;-57
2022/05/28 13:53:51;;;;;;;2.33;0.82;;;19.50;62.70;;;;;;10394234;28;20026;-57
2022/05/28 13:58:52;;;;;;;1.98;0.88;;;19.50;62.60;;;;;;10411468;28;20029;-57
2022/05/28 14:03:54;;;;;;;1.95;0.63;;;19.50;62.50;;;;;;10410143;28;20029;-57
2022/05/28 14:09:01;;;;;;;2.13;0.95;;;19.50;62.50;;;;;;10410119;28;20034;-57
2022/05/28 14:14:22;;;;;;;0.98;0.60;;;19.50;62.40;;;;;;10411164;28;20025;-57
2022/05/28 14:19:32;;;;;;;2.88;1.23;;;19.50;62.70;;;;;;10410794;28;20116;-56
2022/05/28 14:24:35;;;;;;;1.67;0.60;;;19.40;62.80;;;;;;10415016;28;20481;-57
2022/05/28 14:29:40;;;;;;;2.25;0.70;;;19.50;62.90;;;;;;10418165;28;20030;-57
2022/05/28 14:34:46;;;;;;;1.75;0.95;;;19.40;62.80;;;;;;10417051;28;20065;-57
2022/05/28 14:39:47;;;;;;;1.40;0.82;;;19.40;62.90;;;;;;10416749;28;20043;-56
2022/05/28 14:44:48;;;;;;;4.85;0.93;;;19.40;62.90;;;;;;10418020;28;20043;-57
2022/05/28 14:49:55;;;;;;;1.70;0.60;;;19.40;63.00;;;;;;10417206;28;20029;-57
2022/05/28 14:55:09;;;;;;;3.08;1.80;;;19.40;63.00;;;;;;10417427;28;20159;-57
2022/05/28 15:00:28;;;;;;;1.67;0.60;;;19.40;63.00;;;;;;10399501;28;20489;-56
2022/05/28 15:05:29;;;;;;;3.23;1.10;;;19.40;63.00;;;;;;10415309;28;20038;-57
2022/05/28 15:10:44;;;;;;;3.20;0.93;;;19.40;62.90;;;;;;10416323;28;20072;-57
2022/05/28 15:15:46;;;;;;;1.55;0.75;;;19.40;63.00;;;;;;10415284;28;20041;-57
2022/05/28 15:20:47;;;;;;;1.75;0.73;;;19.40;63.10;;;;;;10413260;28;20099;-57
2022/05/28 15:25:48;;;;;;;5.13;1.45;;;19.40;62.90;;;;;;10417341;28;20033;-54
2022/05/28 15:30:49;;;;;;;6.03;1.15;;;19.40;62.90;;;;;;10431211;28;20389;-56
2022/05/28 15:41:15;;;;;;;23.45;2.90;;;19.50;60.90;;;;;;10401435;28;20057;-56
2022/05/28 15:46:16;;;;;;;11.55;2.30;;;19.50;58.30;;;;;;10404355;28;20060;-58
2022/05/28 15:51:16;;;;;;;8.02;1.92;;;19.40;58.30;;;;;;10413682;28;20450;-58
2022/05/28 15:56:17;;;;;;;7.25;2.88;;;19.40;56.10;;;;;;10403004;28;20056;-56
2022/05/28 16:01:24;;;;;;;16.40;2.17;;;19.40;55.10;;;;;;10414512;28;20064;-56
2022/05/28 16:06:26;;;;;;;6.47;1.65;;;19.40;53.70;;;;;;10414576;28;20045;-55
2022/05/28 16:11:31;;;;;;;8.43;2.15;;;19.40;53.10;;;;;;10414670;28;20065;-55
2022/05/28 16:16:32;;;;;;;10.95;3.00;;;19.40;52.70;;;;;;10429960;28;20129;-56
2022/05/28 16:21:34;;;;;;;11.07;1.88;;;19.40;52.40;;;;;;10412041;28;20034;-55
2022/05/28 16:26:36;;;;;;;9.52;1.88;;;19.40;52.30;;;;;;10415012;28;20029;-55
2022/05/28 16:31:37;;;;;;;7.50;1.73;;;19.50;52.40;;;;;;10429465;28;20409;-56
2022/05/28 16:36:39;;;;;;;7.30;2.35;;;19.50;51.90;;;;;;10409445;28;20040;-57
2022/05/28 16:41:40;;;;;;;19.15;3.22;;;19.50;51.60;;;;;;10409052;28;20037;-57
2022/05/28 16:46:41;;;;;;;19.00;3.17;;;19.40;51.70;;;;;;10411638;28;20057;-57
2022/05/28 16:51:42;;;;;;;21.40;3.33;;;19.40;51.40;;;;;;10411340;28;20448;-57
2022/05/28 16:56:45;;;;;;;21.27;2.83;;;19.40;52.30;;;;;;10413236;28;20458;-57
2022/05/28 17:01:45;;;;;;;10.18;2.40;;;19.40;52.50;;;;;;10413094;28;20026;-57
2022/05/28 17:06:46;;;;;;;8.80;2.22;;;19.30;52.80;;;;;;10413254;28;20048;-56
2022/05/28 17:11:50;;;;;;;13.93;3.15;;;19.30;52.70;;;;;;10411554;28;20061;-56
2022/05/28 17:16:52;;;;;;;11.15;2.30;;;19.30;52.70;;;;;;10428354;28;20025;-57
2022/05/28 17:21:53;;;;;;;10.45;2.28;;;19.30;53.20;;;;;;10414577;28;20037;-57
2022/05/28 17:26:59;;;;;;;13.32;2.60;;;19.30;53.40;;;;;;10409024;28;20037;-57
2022/05/28 17:32:05;;;;;;;9.98;3.33;;;19.30;53.80;;;;;;10418348;28;20041;-55
2022/05/28 17:37:10;;;;;;;7.68;1.40;;;19.30;54.20;;;;;;10426209;28;20525;-57
2022/05/28 17:42:11;;;;;;;3.92;1.90;;;19.30;53.90;;;;;;10411455;28;20040;-57
2022/05/28 17:47:12;;;;;;;6.07;1.65;;;19.30;53.00;;;;;;10412555;28;20362;-57
2022/05/28 17:52:13;;;;;;;8.25;2.28;;;19.30;53.00;;;;;;10411754;28;20091;-58
2022/05/28 17:57:14;;;;;;;8.85;1.90;;;19.30;52.40;;;;;;10411359;28;20564;-58
2022/05/28 18:02:25;;;;;;;3.28;0.98;;;19.30;52.70;;;;;;10418887;28;20033;-58
2022/05/28 18:07:26;;;;;;;8.10;1.83;;;19.30;53.00;;;;;;10422083;28;20108;-57
2022/05/28 18:12:27;;;;;;;15.52;2.17;;;19.30;53.40;;;;;;10411463;28;20033;-57
2022/05/28 18:17:51;;;;;;;17.52;2.95;;;19.30;54.00;;;;;;10409922;28;20034;-58
2022/05/28 18:22:52;;;;;;;9.60;2.10;;;19.40;54.50;;;;;;10420253;28;20044;-58
2022/05/28 18:27:54;;;;;;;5.95;2.00;;;19.40;54.80;;;;;;10410132;28;20449;-57
2022/05/28 18:32:55;;;;;;;8.98;1.75;;;19.40;55.10;;;;;;10412844;28;20045;-57
2022/05/28 18:37:59;;;;;;;6.63;1.60;;;19.40;55.30;;;;;;10397657;28;20041;-58
2022/05/28 18:43:01;;;;;;;7.28;2.33;;;19.40;55.50;;;;;;10411752;28;20076;-58
2022/05/28 18:48:03;;;;;;;7.25;2.22;;;19.40;55.70;;;;;;10406953;28;20067;-57
2022/05/28 18:58:25;;;;;;;7.03;2.25;;;19.40;56.00;;;;;;10414911;28;20033;-57
2022/05/28 19:03:30;;;;;;;5.47;1.40;;;19.50;56.30;;;;;;10414573;28;20384;-57
2022/05/28 19:08:34;;;;;;;2.88;0.82;;;19.50;56.60;;;;;;10396501;28;20026;-57
2022/05/28 19:13:38;;;;;;;4.72;1.58;;;19.40;56.70;;;;;;10380583;28;20075;-57
2022/05/28 19:18:38;;;;;;;9.18;1.40;;;19.40;56.70;;;;;;10409002;28;20039;-57
2022/05/28 19:23:42;;;;;;;7.65;1.58;;;19.50;57.00;;;;;;10415203;28;20061;-57
2022/05/28 19:28:43;;;;;;;3.83;1.42;;;19.50;57.00;;;;;;10414458;28;20033;-56
2022/05/28 19:33:48;;;;;;;4.38;1.08;;;19.40;57.10;;;;;;10414856;28;20046;-57
2022/05/28 19:38:48;;;;;;;4.72;1.05;;;19.40;57.20;;;;;;10413584;28;20029;-58
2022/05/28 19:43:54;;;;;;;4.60;0.98;;;19.40;57.40;;;;;;10411585;28;20037;-57
2022/05/28 19:48:55;;;;;;;2.75;0.80;;;19.40;57.20;;;;;;10414397;28;20040;-57
2022/05/28 19:53:56;;;;;;;3.55;1.35;;;19.40;57.30;;;;;;10414293;28;20022;-57
2022/05/28 19:58:57;;;;;;;2.05;0.98;;;19.40;57.30;;;;;;10415836;28;20065;-57
2022/05/28 20:03:57;;;;;;;5.55;1.10;;;19.40;57.40;;;;;;10415860;28;20033;-57
2022/05/28 20:09:00;;;;;;;4.13;1.10;;;19.40;57.50;;;;;;10415005;28;20172;-56
2022/05/28 20:14:01;;;;;;;2.47;0.70;;;19.40;57.50;;;;;;10415340;28;20459;-55
2022/05/28 20:19:03;;;;;;;2.70;0.73;;;19.40;57.60;;;;;;10414648;28;20141;-57
2022/05/28 20:24:04;;;;;;;1.73;0.85;;;19.40;57.60;;;;;;10414995;28;20025;-56
2022/05/28 20:29:06;;;;;;;3.35;1.08;;;19.40;57.60;;;;;;10414677;28;20030;-57
2022/05/28 20:34:14;;;;;;;4.63;1.55;;;19.30;57.60;;;;;;10413961;28;20402;-57
2022/05/28 20:39:15;;;;;;;1.40;0.70;;;19.30;57.50;;;;;;10413026;28;20057;-57
2022/05/28 20:44:16;;;;;;;1.95;0.80;;;19.40;57.50;;;;;;10414066;28;20112;-57
2022/05/28 20:49:17;;;;;;;3.28;0.80;;;19.30;57.50;;;;;;10413855;28;20090;-57
2022/05/28 20:54:18;;;;;;;1.67;0.93;;;19.30;57.50;;;;;;10411853;28;20036;-57
2022/05/28 20:59:19;;;;;;;3.65;1.15;;;19.30;57.40;;;;;;10413839;28;20565;-56
2022/05/28 21:04:20;;;;;;;1.35;0.60;;;19.30;57.50;;;;;;10412355;28;20116;-56
2022/05/28 21:09:22;;;;;;;3.90;1.10;;;19.30;57.50;;;;;;10428619;28;20112;-56
2022/05/28 21:14:23;;;;;;;1.70;0.80;;;19.30;57.50;;;;;;10413145;28;20052;-56
2022/05/28 21:19:28;;;;;;;4.10;0.88;;;19.30;57.40;;;;;;10411111;28;20060;-57
2022/05/28 21:24:29;;;;;;;3.22;0.73;;;19.30;57.40;;;;;;10419164;28;20401;-57
2022/05/28 21:34:50;;;;;;;1.67;0.60;;;19.30;57.50;;;;;;10418318;28;20045;-56
2022/05/28 21:39:51;;;;;;;2.40;0.73;;;19.30;57.50;;;;;;10421622;28;20036;-57
2022/05/28 21:44:52;;;;;;;3.85;0.65;;;19.30;57.50;;;;;;10421060;28;20026;-57
2022/05/28 21:49:55;;;;;;;2.88;0.70;;;19.30;57.50;;;;;;10420838;28;20041;-56
2022/05/28 21:54:57;;;;;;;1.58;0.77;;;19.30;57.50;;;;;;10436152;28;20477;-57
2022/05/28 21:59:57;;;;;;;5.00;1.30;;;19.30;57.50;;;;;;10435696;28;20117;-57
2022/05/28 22:04:59;;;;;;;2.15;0.90;;;19.20;57.40;;;;;;10420073;28;20033;-57
2022/05/28 22:09:59;;;;;;;3.55;1.17;;;19.20;57.50;;;;;;10419778;28;20041;-57
2022/05/28 22:15:00;;;;;;;2.20;0.50;;;19.20;57.50;;;;;;10418785;28;20430;-57
2022/05/28 22:20:02;;;;;;;2.00;1.00;;;19.20;57.50;;;;;;10419852;28;20025;-56
2022/05/28 22:25:05;;;;;;;2.58;0.80;;;19.20;57.50;;;;;;10420833;28;20029;-57
2022/05/28 22:30:08;;;;;;;1.05;0.50;;;19.20;57.60;;;;;;10426711;28;20044;-56
2022/05/28 22:35:10;;;;;;;2.00;0.60;;;19.20;57.60;;;;;;10418788;28;20417;-57
2022/05/28 22:40:12;;;;;;;3.22;1.17;;;19.20;57.50;;;;;;10418966;28;20038;-57
2022/05/28 22:45:14;;;;;;;1.48;0.80;;;19.20;57.60;;;;;;10417780;28;20036;-56
2022/05/28 22:50:32;;;;;;;3.58;0.75;;;19.10;57.60;;;;;;10418575;28;20032;-57
2022/05/28 22:55:33;;;;;;;2.45;0.90;;;19.10;57.70;;;;;;10418598;28;20384;-56
2022/05/28 23:00:38;;;;;;;2.42;1.02;;;19.20;57.90;;;;;;10417818;28;20044;-56
2022/05/28 23:05:42;;;;;;;2.80;0.75;;;19.20;57.90;;;;;;10433110;28;20037;-57
2022/05/28 23:10:43;;;;;;;2.55;0.90;;;19.10;57.90;;;;;;10432861;28;20083;-57
2022/05/28 23:15:46;;;;;;;2.30;0.77;;;19.20;57.90;;;;;;10417438;28;20025;-56
2022/05/28 23:20:48;;;;;;;2.95;0.70;;;19.10;58.00;;;;;;10417463;28;20036;-57
2022/05/28 23:25:50;;;;;;;1.10;0.60;;;19.10;58.00;;;;;;10419941;28;20029;-57
2022/05/28 23:30:50;;;;;;;2.47;0.75;;;19.10;58.00;;;;;;10416712;28;20069;-57
2022/05/28 23:35:51;;;;;;;1.67;1.08;;;19.10;58.00;;;;;;10416838;28;20453;-57
2022/05/28 23:40:52;;;;;;;2.67;1.20;;;19.10;58.00;;;;;;10416600;28;20108;-57
2022/05/28 23:45:56;;;;;;;2.50;1.73;;;19.10;58.00;;;;;;10416090;28;20621;-57
2022/05/28 23:50:58;;;;;;;1.63;0.60;;;19.10;58.10;;;;;;10415038;28;20714;-57
2022/05/28 23:55:59;;;;;;;2.63;0.75;;;19.10;58.10;;;;;;10413675;28;20037;-57
